weather.gov     
National Weather Service

Terminal Aerodrome Forecast
NWS Homepage
This page is being discontinued on March 12, 2014.
The same data is available at this site. Please update your bookmarks.
Thank you, and we apologize for the inconvenience.
Please send an email to SR-SRH.Webmaster@noaa.gov with any concerns.


Current Version
Previous Version:    01  02  03  04  05  06  07  08  09  10  11  12  13  14  15  16  17  18  19  20  21  22  23  24  25  26  27  
[Printable]
482
FTUS41 KBOX 011138
TAFACK
TAF
KACK 011138Z 0112/0212 24011KT 3SM BR BKN005 OVC035
     FM011400 23008KT 5SM BR OVC035
     FM011600 23009KT P6SM VCTS OVC010CB
     FM011700 23009KT P6SM VCTS OVC003CB
     FM020000 22008KT 3SM BR BKN003
     FM020600 23007KT 1/4SM FG OVC003=


482
FTUS41 KBOX 011138
TAFACK
TAF
KACK 011138Z 0112/0212 24011KT 3SM BR BKN005 OVC035
     FM011400 23008KT 5SM BR OVC035
     FM011600 23009KT P6SM VCTS OVC010CB
     FM011700 23009KT P6SM VCTS OVC003CB
     FM020000 22008KT 3SM BR BKN003
     FM020600 23007KT 1/4SM FG OVC003=




U.S. Dept. of Commerce
NOAA National Weather Service
1325 East West Highway
Silver Spring, MD 20910
E-mail: w-nws.webmaster@noaa.gov
Page last modified: May 16, 2007
NATIONAL WEATHER SERVICE: for Safety, for Work, for Fun - FOR LIFE